sensor_id;sensor_type;location;lat;lon;timestamp;P1;durP1;ratioP1;P2;durP2;ratioP2
36815;SDS011;71982;52.294;6.760;2024-01-06T00:00:56;23.92;;;13.48;;
36815;SDS011;71982;52.294;6.760;2024-01-06T00:03:23;23.08;;;13.43;;
36815;SDS011;71982;52.294;6.760;2024-01-06T00:05:50;23.55;;;13.07;;
36815;SDS011;71982;52.294;6.760;2024-01-06T00:08:17;23.48;;;12.48;;
36815;SDS011;71982;52.294;6.760;2024-01-06T00:10:44;23.05;;;12.70;;
36815;SDS011;71982;52.294;6.760;2024-01-06T00:13:10;23.13;;;12.32;;
36815;SDS011;71982;52.294;6.760;2024-01-06T00:15:37;23.88;;;12.82;;
36815;SDS011;71982;52.294;6.760;2024-01-06T00:18:05;25.05;;;13.45;;
36815;SDS011;71982;52.294;6.760;2024-01-06T00:20:32;25.63;;;13.45;;
36815;SDS011;71982;52.294;6.760;2024-01-06T00:22:59;26.60;;;13.50;;
36815;SDS011;71982;52.294;6.760;2024-01-06T00:25:26;27.33;;;14.00;;
36815;SDS011;71982;52.294;6.760;2024-01-06T00:27:53;27.55;;;14.82;;
36815;SDS011;71982;52.294;6.760;2024-01-06T00:30:20;32.83;;;15.00;;
36815;SDS011;71982;52.294;6.760;2024-01-06T00:32:46;27.83;;;13.85;;
36815;SDS011;71982;52.294;6.760;2024-01-06T00:35:15;25.98;;;12.15;;
36815;SDS011;71982;52.294;6.760;2024-01-06T00:37:42;20.55;;;11.85;;
36815;SDS011;71982;52.294;6.760;2024-01-06T00:40:09;25.00;;;12.02;;
36815;SDS011;71982;52.294;6.760;2024-01-06T00:42:36;24.27;;;13.25;;
36815;SDS011;71982;52.294;6.760;2024-01-06T00:45:03;26.92;;;13.65;;
36815;SDS011;71982;52.294;6.760;2024-01-06T00:47:31;23.88;;;13.38;;
36815;SDS011;71982;52.294;6.760;2024-01-06T00:49:58;28.63;;;13.05;;
36815;SDS011;71982;52.294;6.760;2024-01-06T00:52:26;24.65;;;12.70;;
36815;SDS011;71982;52.294;6.760;2024-01-06T00:54:53;26.40;;;13.68;;
36815;SDS011;71982;52.294;6.760;2024-01-06T00:57:20;26.75;;;13.95;;
36815;SDS011;71982;52.294;6.760;2024-01-06T00:59:49;27.35;;;13.18;;
36815;SDS011;71982;52.294;6.760;2024-01-06T01:02:16;25.88;;;12.68;;
36815;SDS011;71982;52.294;6.760;2024-01-06T01:04:43;28.42;;;14.02;;
36815;SDS011;71982;52.294;6.760;2024-01-06T01:07:10;30.63;;;12.85;;
36815;SDS011;71982;52.294;6.760;2024-01-06T01:09:39;26.42;;;12.52;;
36815;SDS011;71982;52.294;6.760;2024-01-06T01:12:06;27.92;;;13.05;;
36815;SDS011;71982;52.294;6.760;2024-01-06T01:14:33;28.17;;;13.35;;
36815;SDS011;71982;52.294;6.760;2024-01-06T01:17:00;24.88;;;12.90;;
36815;SDS011;71982;52.294;6.760;2024-01-06T01:19:26;25.25;;;12.63;;
36815;SDS011;71982;52.294;6.760;2024-01-06T01:21:53;22.17;;;11.65;;
36815;SDS011;71982;52.294;6.760;2024-01-06T01:24:20;27.33;;;13.13;;
36815;SDS011;71982;52.294;6.760;2024-01-06T01:26:49;29.65;;;14.10;;
36815;SDS011;71982;52.294;6.760;2024-01-06T01:29:16;23.08;;;12.63;;
36815;SDS011;71982;52.294;6.760;2024-01-06T01:31:45;25.95;;;12.52;;
36815;SDS011;71982;52.294;6.760;2024-01-06T01:34:12;25.80;;;14.07;;
36815;SDS011;71982;52.294;6.760;2024-01-06T01:36:39;25.85;;;14.10;;
36815;SDS011;71982;52.294;6.760;2024-01-06T01:39:06;26.15;;;13.00;;
36815;SDS011;71982;52.294;6.760;2024-01-06T01:41:33;30.83;;;14.57;;
36815;SDS011;71982;52.294;6.760;2024-01-06T01:44:01;25.42;;;13.88;;
36815;SDS011;71982;52.294;6.760;2024-01-06T01:46:29;29.67;;;15.75;;
36815;SDS011;71982;52.294;6.760;2024-01-06T01:48:57;25.73;;;13.93;;
36815;SDS011;71982;52.294;6.760;2024-01-06T01:51:26;31.75;;;16.92;;
36815;SDS011;71982;52.294;6.760;2024-01-06T01:53:54;33.63;;;18.25;;
36815;SDS011;71982;52.294;6.760;2024-01-06T01:56:22;33.65;;;18.20;;
36815;SDS011;71982;52.294;6.760;2024-01-06T01:58:50;32.35;;;18.85;;
36815;SDS011;71982;52.294;6.760;2024-01-06T02:01:18;31.88;;;17.95;;
36815;SDS011;71982;52.294;6.760;2024-01-06T02:03:45;30.08;;;17.98;;
36815;SDS011;71982;52.294;6.760;2024-01-06T02:06:13;30.88;;;16.60;;
36815;SDS011;71982;52.294;6.760;2024-01-06T02:08:40;29.17;;;16.63;;
36815;SDS011;71982;52.294;6.760;2024-01-06T02:11:07;34.22;;;15.75;;
36815;SDS011;71982;52.294;6.760;2024-01-06T02:13:34;32.55;;;15.88;;
36815;SDS011;71982;52.294;6.760;2024-01-06T02:16:02;29.05;;;15.40;;
36815;SDS011;71982;52.294;6.760;2024-01-06T02:18:31;28.38;;;16.48;;
36815;SDS011;71982;52.294;6.760;2024-01-06T02:20:59;29.67;;;15.88;;
36815;SDS011;71982;52.294;6.760;2024-01-06T02:23:28;30.40;;;16.10;;
36815;SDS011;71982;52.294;6.760;2024-01-06T02:25:55;27.92;;;15.63;;
36815;SDS011;71982;52.294;6.760;2024-01-06T02:28:22;29.00;;;14.60;;
36815;SDS011;71982;52.294;6.760;2024-01-06T02:30:49;24.58;;;13.68;;
36815;SDS011;71982;52.294;6.760;2024-01-06T02:33:16;25.83;;;14.20;;
36815;SDS011;71982;52.294;6.760;2024-01-06T02:35:44;28.67;;;16.45;;
36815;SDS011;71982;52.294;6.760;2024-01-06T02:38:11;29.92;;;16.73;;
36815;SDS011;71982;52.294;6.760;2024-01-06T02:40:39;29.92;;;17.75;;
36815;SDS011;71982;52.294;6.760;2024-01-06T02:43:07;33.17;;;18.00;;
36815;SDS011;71982;52.294;6.760;2024-01-06T02:45:34;30.30;;;16.10;;
36815;SDS011;71982;52.294;6.760;2024-01-06T02:48:01;29.17;;;15.90;;
36815;SDS011;71982;52.294;6.760;2024-01-06T02:50:28;32.45;;;17.10;;
36815;SDS011;71982;52.294;6.760;2024-01-06T02:52:55;33.28;;;17.15;;
36815;SDS011;71982;52.294;6.760;2024-01-06T02:55:22;32.30;;;15.40;;
36815;SDS011;71982;52.294;6.760;2024-01-06T02:57:50;32.05;;;17.10;;
36815;SDS011;71982;52.294;6.760;2024-01-06T03:00:17;37.03;;;18.90;;
36815;SDS011;71982;52.294;6.760;2024-01-06T03:02:44;35.70;;;19.40;;
36815;SDS011;71982;52.294;6.760;2024-01-06T03:05:11;34.88;;;17.98;;
36815;SDS011;71982;52.294;6.760;2024-01-06T03:07:38;36.83;;;19.08;;
36815;SDS011;71982;52.294;6.760;2024-01-06T03:10:05;31.52;;;17.92;;
36815;SDS011;71982;52.294;6.760;2024-01-06T03:12:32;32.28;;;16.20;;
36815;SDS011;71982;52.294;6.760;2024-01-06T03:15:00;30.85;;;17.05;;
36815;SDS011;71982;52.294;6.760;2024-01-06T03:17:27;38.25;;;19.40;;
36815;SDS011;71982;52.294;6.760;2024-01-06T03:19:54;33.97;;;18.10;;
36815;SDS011;71982;52.294;6.760;2024-01-06T03:22:21;34.60;;;18.33;;
36815;SDS011;71982;52.294;6.760;2024-01-06T03:24:48;34.50;;;19.00;;
36815;SDS011;71982;52.294;6.760;2024-01-06T03:27:15;33.30;;;17.95;;
36815;SDS011;71982;52.294;6.760;2024-01-06T03:29:42;35.08;;;19.80;;
36815;SDS011;71982;52.294;6.760;2024-01-06T03:32:10;34.88;;;19.95;;
36815;SDS011;71982;52.294;6.760;2024-01-06T03:34:37;33.10;;;18.77;;
36815;SDS011;71982;52.294;6.760;2024-01-06T03:37:05;36.20;;;19.67;;
36815;SDS011;71982;52.294;6.760;2024-01-06T03:39:31;30.17;;;19.00;;
36815;SDS011;71982;52.294;6.760;2024-01-06T03:41:59;30.42;;;19.42;;
36815;SDS011;71982;52.294;6.760;2024-01-06T03:44:26;32.03;;;18.30;;
36815;SDS011;71982;52.294;6.760;2024-01-06T03:46:55;34.97;;;18.88;;
36815;SDS011;71982;52.294;6.760;2024-01-06T03:49:23;32.45;;;19.77;;
36815;SDS011;71982;52.294;6.760;2024-01-06T03:51:50;33.58;;;19.05;;
36815;SDS011;71982;52.294;6.760;2024-01-06T03:54:17;38.15;;;19.50;;
36815;SDS011;71982;52.294;6.760;2024-01-06T03:56:44;38.42;;;20.35;;
36815;SDS011;71982;52.294;6.760;2024-01-06T03:59:11;33.10;;;20.10;;
36815;SDS011;71982;52.294;6.760;2024-01-06T04:01:38;33.33;;;20.40;;
36815;SDS011;71982;52.294;6.760;2024-01-06T04:04:04;34.03;;;21.00;;
36815;SDS011;71982;52.294;6.760;2024-01-06T04:06:33;40.03;;;21.20;;
36815;SDS011;71982;52.294;6.760;2024-01-06T04:09:00;38.30;;;21.33;;
36815;SDS011;71982;52.294;6.760;2024-01-06T04:11:27;37.65;;;19.65;;
36815;SDS011;71982;52.294;6.760;2024-01-06T04:13:54;42.08;;;19.85;;
36815;SDS011;71982;52.294;6.760;2024-01-06T04:16:20;35.22;;;19.95;;
36815;SDS011;71982;52.294;6.760;2024-01-06T04:18:47;36.47;;;19.55;;
36815;SDS011;71982;52.294;6.760;2024-01-06T04:21:14;36.60;;;20.45;;
36815;SDS011;71982;52.294;6.760;2024-01-06T04:23:42;36.72;;;18.67;;
36815;SDS011;71982;52.294;6.760;2024-01-06T04:26:09;32.80;;;19.30;;
36815;SDS011;71982;52.294;6.760;2024-01-06T04:28:36;30.65;;;19.42;;
36815;SDS011;71982;52.294;6.760;2024-01-06T04:31:03;29.20;;;18.30;;
36815;SDS011;71982;52.294;6.760;2024-01-06T04:33:30;35.20;;;19.73;;
36815;SDS011;71982;52.294;6.760;2024-01-06T04:35:58;36.63;;;20.52;;
36815;SDS011;71982;52.294;6.760;2024-01-06T04:38:26;37.03;;;21.15;;
36815;SDS011;71982;52.294;6.760;2024-01-06T04:40:55;38.55;;;20.45;;
36815;SDS011;71982;52.294;6.760;2024-01-06T04:43:21;40.42;;;20.90;;
36815;SDS011;71982;52.294;6.760;2024-01-06T04:45:48;42.88;;;20.88;;
36815;SDS011;71982;52.294;6.760;2024-01-06T04:48:15;38.40;;;20.75;;
36815;SDS011;71982;52.294;6.760;2024-01-06T04:50:42;38.47;;;21.25;;
36815;SDS011;71982;52.294;6.760;2024-01-06T04:53:09;38.13;;;22.10;;
36815;SDS011;71982;52.294;6.760;2024-01-06T04:55:36;39.95;;;21.80;;
36815;SDS011;71982;52.294;6.760;2024-01-06T04:58:04;40.00;;;22.08;;
36815;SDS011;71982;52.294;6.760;2024-01-06T05:00:31;39.05;;;22.33;;
36815;SDS011;71982;52.294;6.760;2024-01-06T05:03:01;41.03;;;22.38;;
36815;SDS011;71982;52.294;6.760;2024-01-06T05:05:28;42.33;;;22.40;;
36815;SDS011;71982;52.294;6.760;2024-01-06T05:07:55;43.17;;;22.63;;
36815;SDS011;71982;52.294;6.760;2024-01-06T05:10:22;41.08;;;22.60;;
36815;SDS011;71982;52.294;6.760;2024-01-06T05:12:49;42.72;;;23.63;;
36815;SDS011;71982;52.294;6.760;2024-01-06T05:15:17;38.47;;;20.58;;
36815;SDS011;71982;52.294;6.760;2024-01-06T05:17:45;37.67;;;20.70;;
36815;SDS011;71982;52.294;6.760;2024-01-06T05:20:12;39.83;;;21.08;;
36815;SDS011;71982;52.294;6.760;2024-01-06T05:22:39;37.22;;;20.25;;
36815;SDS011;71982;52.294;6.760;2024-01-06T05:25:06;39.30;;;20.85;;
36815;SDS011;71982;52.294;6.760;2024-01-06T05:27:34;40.28;;;20.77;;
36815;SDS011;71982;52.294;6.760;2024-01-06T05:30:01;35.58;;;19.67;;
36815;SDS011;71982;52.294;6.760;2024-01-06T05:32:29;36.75;;;20.05;;
36815;SDS011;71982;52.294;6.760;2024-01-06T05:34:56;37.60;;;22.17;;
36815;SDS011;71982;52.294;6.760;2024-01-06T05:37:24;36.05;;;20.90;;
36815;SDS011;71982;52.294;6.760;2024-01-06T05:39:51;40.60;;;21.08;;
36815;SDS011;71982;52.294;6.760;2024-01-06T05:42:19;39.95;;;21.50;;
36815;SDS011;71982;52.294;6.760;2024-01-06T05:44:46;41.40;;;20.30;;
36815;SDS011;71982;52.294;6.760;2024-01-06T05:47:13;40.10;;;21.45;;
36815;SDS011;71982;52.294;6.760;2024-01-06T05:49:43;42.42;;;20.88;;
36815;SDS011;71982;52.294;6.760;2024-01-06T05:52:10;41.25;;;20.02;;
36815;SDS011;71982;52.294;6.760;2024-01-06T05:54:39;43.55;;;21.15;;
36815;SDS011;71982;52.294;6.760;2024-01-06T05:57:07;39.67;;;20.90;;
36815;SDS011;71982;52.294;6.760;2024-01-06T05:59:34;45.30;;;21.48;;
36815;SDS011;71982;52.294;6.760;2024-01-06T06:02:01;53.13;;;23.15;;
36815;SDS011;71982;52.294;6.760;2024-01-06T06:04:28;40.65;;;22.50;;
36815;SDS011;71982;52.294;6.760;2024-01-06T06:06:56;45.63;;;22.52;;
36815;SDS011;71982;52.294;6.760;2024-01-06T06:09:23;46.55;;;22.63;;
36815;SDS011;71982;52.294;6.760;2024-01-06T06:11:50;43.63;;;22.10;;
36815;SDS011;71982;52.294;6.760;2024-01-06T06:14:17;48.15;;;22.70;;
36815;SDS011;71982;52.294;6.760;2024-01-06T06:16:44;50.30;;;21.98;;
36815;SDS011;71982;52.294;6.760;2024-01-06T06:19:13;46.30;;;24.95;;
36815;SDS011;71982;52.294;6.760;2024-01-06T06:21:39;49.10;;;26.63;;
36815;SDS011;71982;52.294;6.760;2024-01-06T06:24:08;47.13;;;25.70;;
36815;SDS011;71982;52.294;6.760;2024-01-06T06:26:34;51.60;;;26.27;;
36815;SDS011;71982;52.294;6.760;2024-01-06T06:29:01;44.33;;;24.75;;
36815;SDS011;71982;52.294;6.760;2024-01-06T06:31:28;50.97;;;25.58;;
36815;SDS011;71982;52.294;6.760;2024-01-06T06:33:55;47.25;;;26.20;;
36815;SDS011;71982;52.294;6.760;2024-01-06T06:36:22;52.03;;;27.63;;
36815;SDS011;71982;52.294;6.760;2024-01-06T06:38:49;53.45;;;27.02;;
36815;SDS011;71982;52.294;6.760;2024-01-06T06:41:18;47.85;;;25.65;;
36815;SDS011;71982;52.294;6.760;2024-01-06T06:43:45;50.85;;;25.27;;
36815;SDS011;71982;52.294;6.760;2024-01-06T06:46:12;47.33;;;24.95;;
36815;SDS011;71982;52.294;6.760;2024-01-06T06:48:39;47.83;;;23.38;;
36815;SDS011;71982;52.294;6.760;2024-01-06T06:51:06;49.70;;;24.67;;
36815;SDS011;71982;52.294;6.760;2024-01-06T06:53:33;44.97;;;23.92;;
36815;SDS011;71982;52.294;6.760;2024-01-06T06:55:59;45.63;;;24.50;;
36815;SDS011;71982;52.294;6.760;2024-01-06T06:58:28;51.80;;;26.40;;
36815;SDS011;71982;52.294;6.760;2024-01-06T07:00:54;47.15;;;24.60;;
36815;SDS011;71982;52.294;6.760;2024-01-06T07:03:21;48.50;;;24.50;;
36815;SDS011;71982;52.294;6.760;2024-01-06T07:05:48;44.28;;;24.52;;
36815;SDS011;71982;52.294;6.760;2024-01-06T07:08:15;51.53;;;23.70;;
36815;SDS011;71982;52.294;6.760;2024-01-06T07:10:42;48.50;;;23.55;;
36815;SDS011;71982;52.294;6.760;2024-01-06T07:13:09;44.67;;;22.30;;
36815;SDS011;71982;52.294;6.760;2024-01-06T07:15:37;42.72;;;21.52;;
36815;SDS011;71982;52.294;6.760;2024-01-06T07:18:04;45.30;;;21.90;;
36815;SDS011;71982;52.294;6.760;2024-01-06T07:20:31;51.55;;;23.30;;
36815;SDS011;71982;52.294;6.760;2024-01-06T07:22:58;47.47;;;20.92;;
36815;SDS011;71982;52.294;6.760;2024-01-06T07:25:25;43.15;;;20.85;;
36815;SDS011;71982;52.294;6.760;2024-01-06T07:27:52;44.83;;;22.40;;
36815;SDS011;71982;52.294;6.760;2024-01-06T07:30:19;41.03;;;21.48;;
36815;SDS011;71982;52.294;6.760;2024-01-06T07:32:47;41.38;;;21.58;;
36815;SDS011;71982;52.294;6.760;2024-01-06T07:35:15;36.78;;;19.52;;
36815;SDS011;71982;52.294;6.760;2024-01-06T07:37:43;36.40;;;18.60;;
36815;SDS011;71982;52.294;6.760;2024-01-06T07:40:10;40.97;;;19.00;;
36815;SDS011;71982;52.294;6.760;2024-01-06T07:42:41;38.35;;;19.10;;
36815;SDS011;71982;52.294;6.760;2024-01-06T07:45:08;34.88;;;18.20;;
36815;SDS011;71982;52.294;6.760;2024-01-06T07:47:35;37.25;;;18.92;;
36815;SDS011;71982;52.294;6.760;2024-01-06T07:50:05;37.30;;;18.00;;
36815;SDS011;71982;52.294;6.760;2024-01-06T07:52:33;37.88;;;18.00;;
36815;SDS011;71982;52.294;6.760;2024-01-06T07:55:00;34.78;;;18.23;;
36815;SDS011;71982;52.294;6.760;2024-01-06T07:57:28;37.28;;;19.33;;
36815;SDS011;71982;52.294;6.760;2024-01-06T07:59:55;33.40;;;18.52;;
36815;SDS011;71982;52.294;6.760;2024-01-06T08:02:22;34.85;;;18.58;;
36815;SDS011;71982;52.294;6.760;2024-01-06T08:04:48;35.97;;;17.98;;
36815;SDS011;71982;52.294;6.760;2024-01-06T08:07:17;31.55;;;17.88;;
36815;SDS011;71982;52.294;6.760;2024-01-06T08:09:44;35.35;;;19.15;;
36815;SDS011;71982;52.294;6.760;2024-01-06T08:12:11;38.10;;;18.63;;
36815;SDS011;71982;52.294;6.760;2024-01-06T08:14:38;32.13;;;18.65;;
36815;SDS011;71982;52.294;6.760;2024-01-06T08:17:05;37.95;;;17.60;;
36815;SDS011;71982;52.294;6.760;2024-01-06T08:19:32;34.28;;;16.63;;
36815;SDS011;71982;52.294;6.760;2024-01-06T08:22:00;33.55;;;17.35;;
36815;SDS011;71982;52.294;6.760;2024-01-06T08:24:29;39.70;;;17.70;;
36815;SDS011;71982;52.294;6.760;2024-01-06T08:26:55;31.33;;;17.13;;
36815;SDS011;71982;52.294;6.760;2024-01-06T08:29:22;29.33;;;16.85;;
36815;SDS011;71982;52.294;6.760;2024-01-06T08:31:49;33.15;;;18.10;;
36815;SDS011;71982;52.294;6.760;2024-01-06T08:34:17;33.47;;;17.58;;
36815;SDS011;71982;52.294;6.760;2024-01-06T08:36:44;27.98;;;16.17;;
36815;SDS011;71982;52.294;6.760;2024-01-06T08:39:11;30.15;;;17.75;;
36815;SDS011;71982;52.294;6.760;2024-01-06T08:41:39;29.55;;;16.42;;
36815;SDS011;71982;52.294;6.760;2024-01-06T08:44:06;29.42;;;15.57;;
36815;SDS011;71982;52.294;6.760;2024-01-06T08:46:33;29.80;;;16.67;;
36815;SDS011;71982;52.294;6.760;2024-01-06T08:49:00;33.20;;;16.17;;
36815;SDS011;71982;52.294;6.760;2024-01-06T08:51:29;33.13;;;15.88;;
36815;SDS011;71982;52.294;6.760;2024-01-06T08:53:56;28.75;;;16.45;;
36815;SDS011;71982;52.294;6.760;2024-01-06T08:56:23;34.53;;;17.88;;
36815;SDS011;71982;52.294;6.760;2024-01-06T08:58:51;29.42;;;16.15;;
36815;SDS011;71982;52.294;6.760;2024-01-06T09:01:18;29.80;;;16.92;;
36815;SDS011;71982;52.294;6.760;2024-01-06T09:03:45;29.65;;;16.15;;
36815;SDS011;71982;52.294;6.760;2024-01-06T09:06:12;29.20;;;15.98;;
36815;SDS011;71982;52.294;6.760;2024-01-06T09:08:39;29.58;;;16.35;;
36815;SDS011;71982;52.294;6.760;2024-01-06T09:11:06;29.55;;;16.65;;
36815;SDS011;71982;52.294;6.760;2024-01-06T09:13:33;31.70;;;17.67;;
36815;SDS011;71982;52.294;6.760;2024-01-06T09:16:02;31.23;;;16.95;;
36815;SDS011;71982;52.294;6.760;2024-01-06T09:18:31;31.30;;;17.52;;
36815;SDS011;71982;52.294;6.760;2024-01-06T09:20:58;32.08;;;18.55;;
36815;SDS011;71982;52.294;6.760;2024-01-06T09:23:25;36.42;;;18.88;;
36815;SDS011;71982;52.294;6.760;2024-01-06T09:25:52;29.67;;;16.63;;
36815;SDS011;71982;52.294;6.760;2024-01-06T09:28:19;36.60;;;20.23;;
36815;SDS011;71982;52.294;6.760;2024-01-06T09:30:46;34.65;;;17.48;;
36815;SDS011;71982;52.294;6.760;2024-01-06T09:33:15;36.38;;;18.38;;
36815;SDS011;71982;52.294;6.760;2024-01-06T09:35:42;35.60;;;19.02;;
36815;SDS011;71982;52.294;6.760;2024-01-06T09:38:10;34.05;;;18.45;;
36815;SDS011;71982;52.294;6.760;2024-01-06T09:40:40;34.60;;;18.90;;
36815;SDS011;71982;52.294;6.760;2024-01-06T09:43:08;33.65;;;18.38;;
36815;SDS011;71982;52.294;6.760;2024-01-06T09:45:35;38.25;;;19.25;;
36815;SDS011;71982;52.294;6.760;2024-01-06T09:48:03;33.47;;;18.27;;
36815;SDS011;71982;52.294;6.760;2024-01-06T09:50:39;35.28;;;19.35;;
36815;SDS011;71982;52.294;6.760;2024-01-06T09:53:08;33.75;;;19.83;;
36815;SDS011;71982;52.294;6.760;2024-01-06T09:55:37;34.03;;;19.63;;
36815;SDS011;71982;52.294;6.760;2024-01-06T09:58:04;34.08;;;19.55;;
36815;SDS011;71982;52.294;6.760;2024-01-06T10:00:32;34.22;;;20.27;;
36815;SDS011;71982;52.294;6.760;2024-01-06T10:02:59;32.63;;;19.90;;
36815;SDS011;71982;52.294;6.760;2024-01-06T10:05:25;29.58;;;18.85;;
36815;SDS011;71982;52.294;6.760;2024-01-06T10:07:54;30.17;;;19.10;;
36815;SDS011;71982;52.294;6.760;2024-01-06T10:10:21;28.30;;;18.70;;
36815;SDS011;71982;52.294;6.760;2024-01-06T10:12:48;26.70;;;17.33;;
36815;SDS011;71982;52.294;6.760;2024-01-06T10:15:20;29.13;;;17.40;;
36815;SDS011;71982;52.294;6.760;2024-01-06T10:17:49;29.48;;;18.02;;
36815;SDS011;71982;52.294;6.760;2024-01-06T10:20:23;27.60;;;16.70;;
36815;SDS011;71982;52.294;6.760;2024-01-06T10:22:51;27.13;;;16.63;;
36815;SDS011;71982;52.294;6.760;2024-01-06T10:25:22;25.15;;;17.70;;
36815;SDS011;71982;52.294;6.760;2024-01-06T10:27:52;27.42;;;17.23;;
36815;SDS011;71982;52.294;6.760;2024-01-06T10:30:20;26.67;;;16.65;;
36815;SDS011;71982;52.294;6.760;2024-01-06T10:32:47;24.27;;;15.93;;
36815;SDS011;71982;52.294;6.760;2024-01-06T10:35:13;22.77;;;15.77;;
36815;SDS011;71982;52.294;6.760;2024-01-06T10:37:41;27.58;;;15.85;;
36815;SDS011;71982;52.294;6.760;2024-01-06T10:40:09;24.35;;;15.02;;
36815;SDS011;71982;52.294;6.760;2024-01-06T10:42:38;21.60;;;14.75;;
36815;SDS011;71982;52.294;6.760;2024-01-06T10:45:07;22.63;;;14.52;;
36815;SDS011;71982;52.294;6.760;2024-01-06T10:47:35;24.73;;;14.77;;
36815;SDS011;71982;52.294;6.760;2024-01-06T10:50:03;21.83;;;15.48;;
36815;SDS011;71982;52.294;6.760;2024-01-06T10:52:31;23.95;;;15.85;;
36815;SDS011;71982;52.294;6.760;2024-01-06T10:54:58;27.63;;;17.63;;
36815;SDS011;71982;52.294;6.760;2024-01-06T10:57:25;24.48;;;16.55;;
36815;SDS011;71982;52.294;6.760;2024-01-06T10:59:54;22.55;;;15.68;;
36815;SDS011;71982;52.294;6.760;2024-01-06T11:02:27;22.83;;;16.07;;
36815;SDS011;71982;52.294;6.760;2024-01-06T11:04:55;23.52;;;15.77;;
36815;SDS011;71982;52.294;6.760;2024-01-06T11:07:22;23.83;;;16.05;;
36815;SDS011;71982;52.294;6.760;2024-01-06T11:09:52;24.02;;;15.73;;
36815;SDS011;71982;52.294;6.760;2024-01-06T11:12:22;21.58;;;15.52;;
36815;SDS011;71982;52.294;6.760;2024-01-06T11:14:51;20.67;;;14.38;;
36815;SDS011;71982;52.294;6.760;2024-01-06T11:20:20;20.30;;;13.70;;
36815;SDS011;71982;52.294;6.760;2024-01-06T11:22:47;17.10;;;12.48;;
36815;SDS011;71982;52.294;6.760;2024-01-06T11:25:15;18.85;;;14.40;;
36815;SDS011;71982;52.294;6.760;2024-01-06T11:27:44;19.63;;;14.02;;
36815;SDS011;71982;52.294;6.760;2024-01-06T11:30:18;17.48;;;12.68;;
36815;SDS011;71982;52.294;6.760;2024-01-06T11:32:46;20.80;;;13.68;;
36815;SDS011;71982;52.294;6.760;2024-01-06T11:35:14;18.00;;;13.63;;
36815;SDS011;71982;52.294;6.760;2024-01-06T11:37:53;18.13;;;12.98;;
36815;SDS011;71982;52.294;6.760;2024-01-06T11:40:25;18.48;;;12.90;;
36815;SDS011;71982;52.294;6.760;2024-01-06T11:43:03;18.35;;;13.75;;
36815;SDS011;71982;52.294;6.760;2024-01-06T11:45:31;18.02;;;13.93;;
36815;SDS011;71982;52.294;6.760;2024-01-06T11:47:59;20.88;;;14.73;;
36815;SDS011;71982;52.294;6.760;2024-01-06T11:50:29;16.77;;;13.05;;
36815;SDS011;71982;52.294;6.760;2024-01-06T11:52:57;18.70;;;13.40;;
36815;SDS011;71982;52.294;6.760;2024-01-06T11:55:25;18.90;;;13.15;;
36815;SDS011;71982;52.294;6.760;2024-01-06T11:57:53;22.23;;;16.63;;
36815;SDS011;71982;52.294;6.760;2024-01-06T12:00:21;18.73;;;13.88;;
36815;SDS011;71982;52.294;6.760;2024-01-06T12:02:48;19.00;;;13.90;;
36815;SDS011;71982;52.294;6.760;2024-01-06T12:05:17;20.10;;;13.70;;
36815;SDS011;71982;52.294;6.760;2024-01-06T12:07:53;20.23;;;14.57;;
36815;SDS011;71982;52.294;6.760;2024-01-06T12:10:21;19.70;;;13.45;;
36815;SDS011;71982;52.294;6.760;2024-01-06T12:12:55;20.10;;;14.77;;
36815;SDS011;71982;52.294;6.760;2024-01-06T12:15:24;21.60;;;15.55;;
36815;SDS011;71982;52.294;6.760;2024-01-06T12:17:51;23.55;;;17.15;;
36815;SDS011;71982;52.294;6.760;2024-01-06T12:20:18;26.88;;;19.85;;
36815;SDS011;71982;52.294;6.760;2024-01-06T12:22:45;21.80;;;15.88;;
36815;SDS011;71982;52.294;6.760;2024-01-06T12:25:14;20.92;;;15.48;;
36815;SDS011;71982;52.294;6.760;2024-01-06T12:27:42;25.30;;;17.15;;
36815;SDS011;71982;52.294;6.760;2024-01-06T12:30:12;26.45;;;18.50;;
36815;SDS011;71982;52.294;6.760;2024-01-06T12:32:41;23.92;;;16.52;;
36815;SDS011;71982;52.294;6.760;2024-01-06T12:35:09;26.60;;;19.13;;
36815;SDS011;71982;52.294;6.760;2024-01-06T12:37:36;24.30;;;17.80;;
36815;SDS011;71982;52.294;6.760;2024-01-06T12:40:04;26.23;;;19.17;;
36815;SDS011;71982;52.294;6.760;2024-01-06T12:42:32;28.02;;;19.83;;
36815;SDS011;71982;52.294;6.760;2024-01-06T12:44:59;25.95;;;18.13;;
36815;SDS011;71982;52.294;6.760;2024-01-06T12:47:26;27.25;;;19.50;;
36815;SDS011;71982;52.294;6.760;2024-01-06T12:49:53;24.50;;;17.23;;
36815;SDS011;71982;52.294;6.760;2024-01-06T12:52:20;23.65;;;17.27;;
36815;SDS011;71982;52.294;6.760;2024-01-06T12:54:46;21.58;;;15.80;;
36815;SDS011;71982;52.294;6.760;2024-01-06T12:57:13;23.42;;;17.05;;
36815;SDS011;71982;52.294;6.760;2024-01-06T12:59:42;25.70;;;17.38;;
36815;SDS011;71982;52.294;6.760;2024-01-06T13:02:09;27.70;;;18.08;;
36815;SDS011;71982;52.294;6.760;2024-01-06T13:04:35;26.48;;;18.80;;
36815;SDS011;71982;52.294;6.760;2024-01-06T13:07:02;25.33;;;18.33;;
36815;SDS011;71982;52.294;6.760;2024-01-06T13:09:28;24.52;;;17.92;;
36815;SDS011;71982;52.294;6.760;2024-01-06T13:29:30;26.13;;;19.17;;
36815;SDS011;71982;52.294;6.760;2024-01-06T13:31:57;27.70;;;19.25;;
36815;SDS011;71982;52.294;6.760;2024-01-06T13:34:25;28.20;;;20.35;;
36815;SDS011;71982;52.294;6.760;2024-01-06T13:36:53;31.60;;;21.77;;
36815;SDS011;71982;52.294;6.760;2024-01-06T13:39:20;29.20;;;21.58;;
36815;SDS011;71982;52.294;6.760;2024-01-06T13:41:47;28.52;;;20.58;;
36815;SDS011;71982;52.294;6.760;2024-01-06T13:44:15;29.45;;;20.45;;
36815;SDS011;71982;52.294;6.760;2024-01-06T13:46:43;28.80;;;19.00;;
36815;SDS011;71982;52.294;6.760;2024-01-06T13:49:11;29.40;;;20.58;;
36815;SDS011;71982;52.294;6.760;2024-01-06T13:51:38;29.13;;;21.15;;
36815;SDS011;71982;52.294;6.760;2024-01-06T13:54:05;30.38;;;20.85;;
36815;SDS011;71982;52.294;6.760;2024-01-06T13:56:32;32.75;;;23.65;;
36815;SDS011;71982;52.294;6.760;2024-01-06T13:58:59;32.55;;;22.42;;
36815;SDS011;71982;52.294;6.760;2024-01-06T14:01:25;34.33;;;22.95;;
36815;SDS011;71982;52.294;6.760;2024-01-06T14:03:54;34.25;;;23.08;;
36815;SDS011;71982;52.294;6.760;2024-01-06T14:06:23;37.25;;;24.13;;
36815;SDS011;71982;52.294;6.760;2024-01-06T14:08:50;36.65;;;25.17;;
36815;SDS011;71982;52.294;6.760;2024-01-06T14:11:18;38.35;;;24.77;;
36815;SDS011;71982;52.294;6.760;2024-01-06T14:13:45;37.03;;;24.05;;
36815;SDS011;71982;52.294;6.760;2024-01-06T14:16:13;33.50;;;22.65;;
36815;SDS011;71982;52.294;6.760;2024-01-06T14:18:40;31.45;;;21.00;;
36815;SDS011;71982;52.294;6.760;2024-01-06T14:21:09;33.83;;;22.98;;
36815;SDS011;71982;52.294;6.760;2024-01-06T14:23:39;31.23;;;21.40;;
36815;SDS011;71982;52.294;6.760;2024-01-06T14:26:06;31.75;;;21.08;;
36815;SDS011;71982;52.294;6.760;2024-01-06T14:28:33;32.03;;;22.25;;
36815;SDS011;71982;52.294;6.760;2024-01-06T14:31:00;30.40;;;21.60;;
36815;SDS011;71982;52.294;6.760;2024-01-06T14:33:26;33.70;;;23.38;;
36815;SDS011;71982;52.294;6.760;2024-01-06T14:35:53;35.05;;;24.35;;
36815;SDS011;71982;52.294;6.760;2024-01-06T14:38:24;41.13;;;25.73;;
36815;SDS011;71982;52.294;6.760;2024-01-06T14:40:51;35.80;;;23.58;;
36815;SDS011;71982;52.294;6.760;2024-01-06T14:43:18;35.95;;;23.73;;